sensor_id;sensor_type;location;lat;lon;timestamp;P1;durP1;ratioP1;P2;durP2;ratioP2
42420;SDS011;28063;48.140;11.588;2024-03-07T00:00:43;9.55;;;8.05;;
42420;SDS011;28063;48.140;11.588;2024-03-07T00:03:09;12.35;;;8.32;;
42420;SDS011;28063;48.140;11.588;2024-03-07T00:05:35;10.07;;;7.43;;
42420;SDS011;28063;48.140;11.588;2024-03-07T00:08:02;10.13;;;8.02;;
42420;SDS011;28063;48.140;11.588;2024-03-07T00:10:28;8.30;;;7.10;;
42420;SDS011;28063;48.140;11.588;2024-03-07T00:12:54;8.80;;;7.57;;
42420;SDS011;28063;48.140;11.588;2024-03-07T00:15:20;10.27;;;7.50;;
42420;SDS011;28063;48.140;11.588;2024-03-07T00:17:46;8.95;;;6.72;;
42420;SDS011;28063;48.140;11.588;2024-03-07T00:20:12;8.57;;;6.57;;
42420;SDS011;28063;48.140;11.588;2024-03-07T00:22:44;9.45;;;7.22;;
42420;SDS011;28063;48.140;11.588;2024-03-07T00:25:10;7.55;;;5.80;;
42420;SDS011;28063;48.140;11.588;2024-03-07T00:27:38;9.45;;;6.32;;
42420;SDS011;28063;48.140;11.588;2024-03-07T00:30:07;15.77;;;10.32;;
42420;SDS011;28063;48.140;11.588;2024-03-07T00:32:33;11.27;;;8.20;;
42420;SDS011;28063;48.140;11.588;2024-03-07T00:35:06;9.23;;;7.80;;
42420;SDS011;28063;48.140;11.588;2024-03-07T00:37:33;9.75;;;7.50;;
42420;SDS011;28063;48.140;11.588;2024-03-07T00:40:00;9.82;;;7.07;;
42420;SDS011;28063;48.140;11.588;2024-03-07T00:42:26;10.00;;;6.70;;
42420;SDS011;28063;48.140;11.588;2024-03-07T00:44:52;10.63;;;8.32;;
42420;SDS011;28063;48.140;11.588;2024-03-07T00:47:18;12.35;;;8.38;;
42420;SDS011;28063;48.140;11.588;2024-03-07T00:49:45;12.60;;;8.95;;
42420;SDS011;28063;48.140;11.588;2024-03-07T00:52:14;9.95;;;7.30;;
42420;SDS011;28063;48.140;11.588;2024-03-07T00:54:40;10.05;;;7.10;;
42420;SDS011;28063;48.140;11.588;2024-03-07T00:57:07;9.57;;;6.78;;
42420;SDS011;28063;48.140;11.588;2024-03-07T00:59:33;9.25;;;6.57;;
42420;SDS011;28063;48.140;11.588;2024-03-07T01:02:00;7.28;;;5.80;;
42420;SDS011;28063;48.140;11.588;2024-03-07T01:04:26;6.95;;;5.57;;
42420;SDS011;28063;48.140;11.588;2024-03-07T01:06:56;7.70;;;5.75;;
42420;SDS011;28063;48.140;11.588;2024-03-07T01:09:25;7.55;;;5.60;;
42420;SDS011;28063;48.140;11.588;2024-03-07T01:11:53;5.85;;;4.85;;
42420;SDS011;28063;48.140;11.588;2024-03-07T01:14:20;5.03;;;4.45;;
42420;SDS011;28063;48.140;11.588;2024-03-07T01:16:46;5.90;;;4.65;;
42420;SDS011;28063;48.140;11.588;2024-03-07T01:19:12;6.00;;;4.28;;
42420;SDS011;28063;48.140;11.588;2024-03-07T01:21:40;5.47;;;4.07;;
42420;SDS011;28063;48.140;11.588;2024-03-07T01:24:06;5.93;;;4.43;;
42420;SDS011;28063;48.140;11.588;2024-03-07T01:26:32;4.15;;;3.50;;
42420;SDS011;28063;48.140;11.588;2024-03-07T01:28:58;6.15;;;4.30;;
42420;SDS011;28063;48.140;11.588;2024-03-07T01:31:25;8.13;;;5.97;;
42420;SDS011;28063;48.140;11.588;2024-03-07T01:33:51;8.30;;;5.97;;
42420;SDS011;28063;48.140;11.588;2024-03-07T01:36:18;9.07;;;6.40;;
42420;SDS011;28063;48.140;11.588;2024-03-07T01:38:45;10.13;;;7.22;;
42420;SDS011;28063;48.140;11.588;2024-03-07T01:41:11;8.75;;;6.20;;
42420;SDS011;28063;48.140;11.588;2024-03-07T01:43:39;10.75;;;7.22;;
42420;SDS011;28063;48.140;11.588;2024-03-07T01:46:05;13.18;;;8.50;;
42420;SDS011;28063;48.140;11.588;2024-03-07T01:48:31;21.27;;;13.13;;
42420;SDS011;28063;48.140;11.588;2024-03-07T01:50:58;21.10;;;12.90;;
42420;SDS011;28063;48.140;11.588;2024-03-07T01:53:25;19.77;;;12.82;;
42420;SDS011;28063;48.140;11.588;2024-03-07T01:55:51;19.75;;;13.23;;
42420;SDS011;28063;48.140;11.588;2024-03-07T01:58:19;20.65;;;14.27;;
42420;SDS011;28063;48.140;11.588;2024-03-07T02:00:46;25.02;;;13.88;;
42420;SDS011;28063;48.140;11.588;2024-03-07T02:03:16;19.95;;;13.15;;
42420;SDS011;28063;48.140;11.588;2024-03-07T02:05:42;16.85;;;10.88;;
42420;SDS011;28063;48.140;11.588;2024-03-07T02:08:08;15.13;;;10.30;;
42420;SDS011;28063;48.140;11.588;2024-03-07T02:10:35;13.55;;;9.95;;
42420;SDS011;28063;48.140;11.588;2024-03-07T02:13:01;25.05;;;15.65;;
42420;SDS011;28063;48.140;11.588;2024-03-07T02:15:27;22.63;;;15.23;;
42420;SDS011;28063;48.140;11.588;2024-03-07T02:17:54;29.38;;;17.08;;
42420;SDS011;28063;48.140;11.588;2024-03-07T02:20:20;27.95;;;18.55;;
42420;SDS011;28063;48.140;11.588;2024-03-07T02:22:47;27.75;;;17.70;;
42420;SDS011;28063;48.140;11.588;2024-03-07T02:25:13;29.02;;;17.98;;
42420;SDS011;28063;48.140;11.588;2024-03-07T02:27:40;29.65;;;18.02;;
42420;SDS011;28063;48.140;11.588;2024-03-07T02:30:07;27.20;;;17.70;;
42420;SDS011;28063;48.140;11.588;2024-03-07T02:32:34;24.05;;;16.13;;
42420;SDS011;28063;48.140;11.588;2024-03-07T02:35:02;31.95;;;18.60;;
42420;SDS011;28063;48.140;11.588;2024-03-07T02:37:28;28.08;;;17.58;;
42420;SDS011;28063;48.140;11.588;2024-03-07T02:39:54;25.58;;;16.38;;
42420;SDS011;28063;48.140;11.588;2024-03-07T02:42:20;23.25;;;15.80;;
42420;SDS011;28063;48.140;11.588;2024-03-07T02:44:46;25.25;;;15.90;;
42420;SDS011;28063;48.140;11.588;2024-03-07T02:47:12;37.78;;;22.17;;
42420;SDS011;28063;48.140;11.588;2024-03-07T02:49:38;33.80;;;20.60;;
42420;SDS011;28063;48.140;11.588;2024-03-07T02:52:05;30.08;;;19.58;;
42420;SDS011;28063;48.140;11.588;2024-03-07T02:54:35;30.30;;;19.38;;
42420;SDS011;28063;48.140;11.588;2024-03-07T02:57:01;25.98;;;18.45;;
42420;SDS011;28063;48.140;11.588;2024-03-07T02:59:27;32.90;;;20.45;;
42420;SDS011;28063;48.140;11.588;2024-03-07T03:01:53;34.83;;;22.13;;
42420;SDS011;28063;48.140;11.588;2024-03-07T03:04:20;34.92;;;21.98;;
42420;SDS011;28063;48.140;11.588;2024-03-07T03:06:46;32.00;;;20.77;;
42420;SDS011;28063;48.140;11.588;2024-03-07T03:09:12;31.38;;;19.52;;
42420;SDS011;28063;48.140;11.588;2024-03-07T03:11:42;36.83;;;21.52;;
42420;SDS011;28063;48.140;11.588;2024-03-07T03:14:08;30.75;;;20.23;;
42420;SDS011;28063;48.140;11.588;2024-03-07T04:17:47;33.72;;;20.25;;
42420;SDS011;28063;48.140;11.588;2024-03-07T04:20:13;30.90;;;19.80;;
42420;SDS011;28063;48.140;11.588;2024-03-07T04:22:42;32.00;;;20.40;;
42420;SDS011;28063;48.140;11.588;2024-03-07T04:25:08;28.10;;;17.98;;
42420;SDS011;28063;48.140;11.588;2024-03-07T04:27:35;31.27;;;19.40;;
42420;SDS011;28063;48.140;11.588;2024-03-07T04:30:05;34.13;;;21.55;;
42420;SDS011;28063;48.140;11.588;2024-03-07T04:32:31;33.05;;;20.52;;
42420;SDS011;28063;48.140;11.588;2024-03-07T04:35:00;36.60;;;21.25;;
42420;SDS011;28063;48.140;11.588;2024-03-07T04:37:29;40.92;;;23.15;;
42420;SDS011;28063;48.140;11.588;2024-03-07T04:39:55;39.85;;;23.70;;
42420;SDS011;28063;48.140;11.588;2024-03-07T04:42:26;36.78;;;23.20;;
42420;SDS011;28063;48.140;11.588;2024-03-07T04:45:00;37.42;;;22.27;;
42420;SDS011;28063;48.140;11.588;2024-03-07T04:47:27;32.85;;;20.80;;
42420;SDS011;28063;48.140;11.588;2024-03-07T04:50:00;30.75;;;19.58;;
42420;SDS011;28063;48.140;11.588;2024-03-07T04:52:34;32.95;;;20.10;;
42420;SDS011;28063;48.140;11.588;2024-03-07T04:55:00;29.35;;;18.73;;
42420;SDS011;28063;48.140;11.588;2024-03-07T04:57:35;30.27;;;19.95;;
42420;SDS011;28063;48.140;11.588;2024-03-07T05:00:14;29.45;;;19.08;;
42420;SDS011;28063;48.140;11.588;2024-03-07T05:02:44;31.00;;;19.20;;
42420;SDS011;28063;48.140;11.588;2024-03-07T05:05:10;31.38;;;20.23;;
42420;SDS011;28063;48.140;11.588;2024-03-07T05:07:38;33.25;;;21.67;;
42420;SDS011;28063;48.140;11.588;2024-03-07T05:10:06;35.30;;;21.33;;
42420;SDS011;28063;48.140;11.588;2024-03-07T05:12:40;37.65;;;22.35;;
42420;SDS011;28063;48.140;11.588;2024-03-07T05:15:07;37.05;;;21.30;;
42420;SDS011;28063;48.140;11.588;2024-03-07T05:17:56;37.75;;;23.45;;
42420;SDS011;28063;48.140;11.588;2024-03-07T05:20:25;36.65;;;21.83;;
42420;SDS011;28063;48.140;11.588;2024-03-07T05:22:55;38.10;;;23.88;;
42420;SDS011;28063;48.140;11.588;2024-03-07T05:25:24;41.80;;;22.55;;
42420;SDS011;28063;48.140;11.588;2024-03-07T05:27:50;38.35;;;24.77;;
42420;SDS011;28063;48.140;11.588;2024-03-07T05:30:18;40.22;;;24.48;;
42420;SDS011;28063;48.140;11.588;2024-03-07T05:32:47;40.63;;;23.42;;
42420;SDS011;28063;48.140;11.588;2024-03-07T05:35:14;42.25;;;24.40;;
42420;SDS011;28063;48.140;11.588;2024-03-07T05:37:43;45.70;;;24.55;;
42420;SDS011;28063;48.140;11.588;2024-03-07T05:40:15;39.60;;;23.88;;
42420;SDS011;28063;48.140;11.588;2024-03-07T05:42:42;46.10;;;26.30;;
42420;SDS011;28063;48.140;11.588;2024-03-07T05:45:08;45.67;;;26.10;;
42420;SDS011;28063;48.140;11.588;2024-03-07T05:47:42;45.15;;;26.30;;
42420;SDS011;28063;48.140;11.588;2024-03-07T05:50:08;43.78;;;26.13;;
42420;SDS011;28063;48.140;11.588;2024-03-07T05:52:41;41.53;;;25.50;;
42420;SDS011;28063;48.140;11.588;2024-03-07T05:55:12;50.47;;;28.08;;
42420;SDS011;28063;48.140;11.588;2024-03-07T05:57:41;47.15;;;27.95;;
42420;SDS011;28063;48.140;11.588;2024-03-07T06:00:10;42.22;;;25.30;;
42420;SDS011;28063;48.140;11.588;2024-03-07T06:02:36;41.20;;;25.60;;
42420;SDS011;28063;48.140;11.588;2024-03-07T06:05:03;35.45;;;23.55;;
42420;SDS011;28063;48.140;11.588;2024-03-07T06:07:34;44.08;;;26.45;;
42420;SDS011;28063;48.140;11.588;2024-03-07T06:10:01;45.55;;;26.35;;
42420;SDS011;28063;48.140;11.588;2024-03-07T06:12:31;47.08;;;27.17;;
42420;SDS011;28063;48.140;11.588;2024-03-07T06:14:59;42.95;;;26.00;;
42420;SDS011;28063;48.140;11.588;2024-03-07T06:17:25;43.88;;;26.52;;
42420;SDS011;28063;48.140;11.588;2024-03-07T06:19:52;39.05;;;24.45;;
42420;SDS011;28063;48.140;11.588;2024-03-07T06:22:28;41.40;;;24.35;;
42420;SDS011;28063;48.140;11.588;2024-03-07T06:25:06;41.67;;;23.27;;
42420;SDS011;28063;48.140;11.588;2024-03-07T06:27:32;38.08;;;22.65;;
42420;SDS011;28063;48.140;11.588;2024-03-07T06:30:03;38.50;;;22.60;;
42420;SDS011;28063;48.140;11.588;2024-03-07T06:32:33;40.58;;;24.13;;
42420;SDS011;28063;48.140;11.588;2024-03-07T06:34:59;45.50;;;26.55;;
42420;SDS011;28063;48.140;11.588;2024-03-07T06:37:29;45.25;;;25.58;;
42420;SDS011;28063;48.140;11.588;2024-03-07T06:39:55;39.58;;;24.73;;
42420;SDS011;28063;48.140;11.588;2024-03-07T06:42:21;43.40;;;25.77;;
42420;SDS011;28063;48.140;11.588;2024-03-07T06:44:48;44.03;;;26.92;;
42420;SDS011;28063;48.140;11.588;2024-03-07T06:47:14;40.03;;;24.38;;
42420;SDS011;28063;48.140;11.588;2024-03-07T06:49:42;40.28;;;24.48;;
42420;SDS011;28063;48.140;11.588;2024-03-07T06:52:08;38.22;;;24.25;;
42420;SDS011;28063;48.140;11.588;2024-03-07T06:54:35;33.50;;;21.75;;
42420;SDS011;28063;48.140;11.588;2024-03-07T06:57:01;34.78;;;21.80;;
42420;SDS011;28063;48.140;11.588;2024-03-07T06:59:27;32.70;;;19.73;;
42420;SDS011;28063;48.140;11.588;2024-03-07T07:01:56;30.88;;;19.30;;
42420;SDS011;28063;48.140;11.588;2024-03-07T07:04:23;29.52;;;18.52;;
42420;SDS011;28063;48.140;11.588;2024-03-07T07:06:52;35.22;;;20.85;;
42420;SDS011;28063;48.140;11.588;2024-03-07T07:09:18;29.50;;;19.05;;
42420;SDS011;28063;48.140;11.588;2024-03-07T07:11:47;33.65;;;20.35;;
42420;SDS011;28063;48.140;11.588;2024-03-07T07:14:13;32.42;;;20.10;;
42420;SDS011;28063;48.140;11.588;2024-03-07T07:16:39;29.67;;;20.23;;
42420;SDS011;28063;48.140;11.588;2024-03-07T07:19:10;31.42;;;19.85;;
42420;SDS011;28063;48.140;11.588;2024-03-07T07:21:37;38.45;;;24.35;;
42420;SDS011;28063;48.140;11.588;2024-03-07T07:24:06;38.45;;;23.77;;
42420;SDS011;28063;48.140;11.588;2024-03-07T07:26:32;37.88;;;23.13;;
42420;SDS011;28063;48.140;11.588;2024-03-07T07:29:01;40.25;;;23.42;;
42420;SDS011;28063;48.140;11.588;2024-03-07T07:31:29;35.15;;;21.88;;
42420;SDS011;28063;48.140;11.588;2024-03-07T07:33:58;36.33;;;22.35;;
42420;SDS011;28063;48.140;11.588;2024-03-07T07:36:24;36.85;;;23.55;;
42420;SDS011;28063;48.140;11.588;2024-03-07T07:38:51;37.30;;;22.02;;
42420;SDS011;28063;48.140;11.588;2024-03-07T07:41:17;37.00;;;23.83;;
42420;SDS011;28063;48.140;11.588;2024-03-07T07:43:44;41.33;;;25.80;;
42420;SDS011;28063;48.140;11.588;2024-03-07T07:46:10;43.95;;;27.48;;
42420;SDS011;28063;48.140;11.588;2024-03-07T07:48:45;43.65;;;26.67;;
42420;SDS011;28063;48.140;11.588;2024-03-07T07:51:14;42.67;;;25.30;;
42420;SDS011;28063;48.140;11.588;2024-03-07T07:53:53;40.70;;;26.02;;
42420;SDS011;28063;48.140;11.588;2024-03-07T07:59:28;41.38;;;24.65;;
42420;SDS011;28063;48.140;11.588;2024-03-07T08:04:23;39.22;;;23.90;;
42420;SDS011;28063;48.140;11.588;2024-03-07T08:06:55;39.30;;;24.00;;
42420;SDS011;28063;48.140;11.588;2024-03-07T08:09:26;35.38;;;21.17;;
42420;SDS011;28063;48.140;11.588;2024-03-07T08:11:55;34.20;;;21.20;;
42420;SDS011;28063;48.140;11.588;2024-03-07T08:14:21;39.35;;;23.73;;
42420;SDS011;28063;48.140;11.588;2024-03-07T08:16:50;39.95;;;24.80;;
42420;SDS011;28063;48.140;11.588;2024-03-07T08:19:16;41.55;;;25.15;;
42420;SDS011;28063;48.140;11.588;2024-03-07T08:21:42;38.00;;;23.88;;
42420;SDS011;28063;48.140;11.588;2024-03-07T08:24:11;36.92;;;23.88;;
42420;SDS011;28063;48.140;11.588;2024-03-07T08:26:37;49.13;;;26.52;;
42420;SDS011;28063;48.140;11.588;2024-03-07T08:29:09;40.00;;;25.42;;
42420;SDS011;28063;48.140;11.588;2024-03-07T08:31:36;37.53;;;23.83;;
42420;SDS011;28063;48.140;11.588;2024-03-07T08:34:03;36.90;;;23.30;;
42420;SDS011;28063;48.140;11.588;2024-03-07T08:36:29;35.20;;;23.13;;
42420;SDS011;28063;48.140;11.588;2024-03-07T08:38:55;41.35;;;25.20;;
42420;SDS011;28063;48.140;11.588;2024-03-07T08:41:21;41.47;;;26.50;;
42420;SDS011;28063;48.140;11.588;2024-03-07T08:43:47;39.20;;;23.48;;
42420;SDS011;28063;48.140;11.588;2024-03-07T08:46:14;44.83;;;25.83;;
42420;SDS011;28063;48.140;11.588;2024-03-07T08:48:40;39.60;;;24.02;;
42420;SDS011;28063;48.140;11.588;2024-03-07T08:51:12;36.65;;;22.45;;
42420;SDS011;28063;48.140;11.588;2024-03-07T08:53:38;39.22;;;23.38;;
42420;SDS011;28063;48.140;11.588;2024-03-07T08:56:04;36.75;;;22.05;;
42420;SDS011;28063;48.140;11.588;2024-03-07T08:58:30;35.35;;;22.73;;
42420;SDS011;28063;48.140;11.588;2024-03-07T09:00:56;33.55;;;22.45;;
42420;SDS011;28063;48.140;11.588;2024-03-07T09:03:23;31.52;;;20.90;;
42420;SDS011;28063;48.140;11.588;2024-03-07T09:05:50;36.55;;;21.90;;
42420;SDS011;28063;48.140;11.588;2024-03-07T09:08:17;36.88;;;21.23;;
42420;SDS011;28063;48.140;11.588;2024-03-07T09:10:43;38.85;;;24.25;;
42420;SDS011;28063;48.140;11.588;2024-03-07T09:13:09;40.85;;;26.55;;
42420;SDS011;28063;48.140;11.588;2024-03-07T09:15:36;40.08;;;25.38;;
42420;SDS011;28063;48.140;11.588;2024-03-07T09:18:02;37.83;;;22.27;;
42420;SDS011;28063;48.140;11.588;2024-03-07T09:20:28;34.00;;;20.77;;
42420;SDS011;28063;48.140;11.588;2024-03-07T09:22:56;26.58;;;17.98;;
42420;SDS011;28063;48.140;11.588;2024-03-07T09:25:25;32.63;;;21.65;;
42420;SDS011;28063;48.140;11.588;2024-03-07T09:27:52;32.40;;;21.42;;
42420;SDS011;28063;48.140;11.588;2024-03-07T09:30:19;35.03;;;22.65;;
42420;SDS011;28063;48.140;11.588;2024-03-07T09:32:49;37.67;;;24.60;;
42420;SDS011;28063;48.140;11.588;2024-03-07T09:35:16;34.25;;;21.75;;
42420;SDS011;28063;48.140;11.588;2024-03-07T09:37:42;41.85;;;25.52;;
42420;SDS011;28063;48.140;11.588;2024-03-07T09:40:09;34.10;;;22.15;;
42420;SDS011;28063;48.140;11.588;2024-03-07T09:42:42;39.35;;;25.65;;
42420;SDS011;28063;48.140;11.588;2024-03-07T09:45:10;34.97;;;23.52;;
42420;SDS011;28063;48.140;11.588;2024-03-07T09:47:39;37.35;;;22.80;;
42420;SDS011;28063;48.140;11.588;2024-03-07T09:50:06;34.45;;;23.08;;
42420;SDS011;28063;48.140;11.588;2024-03-07T09:52:33;38.75;;;24.45;;
42420;SDS011;28063;48.140;11.588;2024-03-07T09:55:01;34.72;;;21.95;;
42420;SDS011;28063;48.140;11.588;2024-03-07T09:57:27;30.40;;;20.02;;
42420;SDS011;28063;48.140;11.588;2024-03-07T09:59:55;26.10;;;17.70;;
42420;SDS011;28063;48.140;11.588;2024-03-07T10:02:21;27.17;;;16.60;;
42420;SDS011;28063;48.140;11.588;2024-03-07T10:04:50;24.00;;;16.25;;
42420;SDS011;28063;48.140;11.588;2024-03-07T10:07:17;29.58;;;20.05;;
42420;SDS011;28063;48.140;11.588;2024-03-07T10:09:44;32.65;;;20.98;;
42420;SDS011;28063;48.140;11.588;2024-03-07T10:12:10;36.42;;;22.55;;
42420;SDS011;28063;48.140;11.588;2024-03-07T10:14:49;31.85;;;20.35;;
42420;SDS011;28063;48.140;11.588;2024-03-07T10:17:16;28.20;;;17.83;;
42420;SDS011;28063;48.140;11.588;2024-03-07T10:19:46;33.67;;;20.92;;
42420;SDS011;28063;48.140;11.588;2024-03-07T10:22:15;37.03;;;23.17;;
42420;SDS011;28063;48.140;11.588;2024-03-07T10:24:49;38.58;;;23.40;;
42420;SDS011;28063;48.140;11.588;2024-03-07T10:27:19;37.20;;;21.98;;
42420;SDS011;28063;48.140;11.588;2024-03-07T10:29:49;38.45;;;23.73;;
42420;SDS011;28063;48.140;11.588;2024-03-07T10:32:23;33.80;;;21.83;;
42420;SDS011;28063;48.140;11.588;2024-03-07T10:34:50;33.03;;;21.20;;
42420;SDS011;28063;48.140;11.588;2024-03-07T10:37:17;27.77;;;19.23;;
42420;SDS011;28063;48.140;11.588;2024-03-07T10:39:49;27.88;;;19.25;;
42420;SDS011;28063;48.140;11.588;2024-03-07T10:42:15;24.55;;;16.60;;
42420;SDS011;28063;48.140;11.588;2024-03-07T10:44:43;35.75;;;22.77;;
42420;SDS011;28063;48.140;11.588;2024-03-07T10:47:16;37.83;;;23.08;;
42420;SDS011;28063;48.140;11.588;2024-03-07T10:55:19;24.25;;;15.40;;
42420;SDS011;28063;48.140;11.588;2024-03-07T10:57:51;21.33;;;14.52;;
42420;SDS011;28063;48.140;11.588;2024-03-07T11:00:25;19.67;;;13.52;;
42420;SDS011;28063;48.140;11.588;2024-03-07T11:03:01;18.45;;;12.82;;
42420;SDS011;28063;48.140;11.588;2024-03-07T11:05:32;21.63;;;13.50;;
42420;SDS011;28063;48.140;11.588;2024-03-07T11:08:02;21.10;;;13.73;;
42420;SDS011;28063;48.140;11.588;2024-03-07T11:10:39;17.05;;;12.52;;
42420;SDS011;28063;48.140;11.588;2024-03-07T11:13:09;18.10;;;12.23;;
42420;SDS011;28063;48.140;11.588;2024-03-07T11:15:36;16.65;;;11.65;;
42420;SDS011;28063;48.140;11.588;2024-03-07T11:18:03;25.50;;;17.15;;
42420;SDS011;28063;48.140;11.588;2024-03-07T11:20:36;22.70;;;15.70;;
42420;SDS011;28063;48.140;11.588;2024-03-07T11:23:35;29.20;;;17.85;;
42420;SDS011;28063;48.140;11.588;2024-03-07T11:26:06;31.70;;;20.40;;
42420;SDS011;28063;48.140;11.588;2024-03-07T11:28:36;34.42;;;21.85;;
42420;SDS011;28063;48.140;11.588;2024-03-07T11:36:41;25.73;;;17.90;;
42420;SDS011;28063;48.140;11.588;2024-03-07T11:42:01;23.70;;;15.43;;
42420;SDS011;28063;48.140;11.588;2024-03-07T11:44:34;26.88;;;16.45;;
42420;SDS011;28063;48.140;11.588;2024-03-07T11:47:03;23.73;;;16.17;;
42420;SDS011;28063;48.140;11.588;2024-03-07T11:49:36;22.58;;;15.90;;
42420;SDS011;28063;48.140;11.588;2024-03-07T11:52:03;23.52;;;14.88;;
42420;SDS011;28063;48.140;11.588;2024-03-07T11:54:37;19.23;;;12.88;;
42420;SDS011;28063;48.140;11.588;2024-03-07T11:57:07;20.75;;;13.73;;
42420;SDS011;28063;48.140;11.588;2024-03-07T11:59:41;21.30;;;14.07;;
42420;SDS011;28063;48.140;11.588;2024-03-07T12:02:13;18.45;;;12.32;;
42420;SDS011;28063;48.140;11.588;2024-03-07T12:04:49;18.27;;;12.27;;
42420;SDS011;28063;48.140;11.588;2024-03-07T12:07:15;19.70;;;14.35;;
42420;SDS011;28063;48.140;11.588;2024-03-07T12:09:48;25.80;;;16.08;;
42420;SDS011;28063;48.140;11.588;2024-03-07T12:12:21;24.13;;;16.05;;
42420;SDS011;28063;48.140;11.588;2024-03-07T12:14:47;21.65;;;15.07;;
42420;SDS011;28063;48.140;11.588;2024-03-07T12:17:16;19.13;;;13.52;;
42420;SDS011;28063;48.140;11.588;2024-03-07T12:19:43;23.60;;;15.65;;
42420;SDS011;28063;48.140;11.588;2024-03-07T12:22:30;25.02;;;15.90;;
42420;SDS011;28063;48.140;11.588;2024-03-07T12:25:17;25.90;;;17.50;;
42420;SDS011;28063;48.140;11.588;2024-03-07T12:27:47;24.23;;;16.23;;
42420;SDS011;28063;48.140;11.588;2024-03-07T12:30:16;24.70;;;15.77;;
42420;SDS011;28063;48.140;11.588;2024-03-07T12:32:50;26.65;;;16.67;;
42420;SDS011;28063;48.140;11.588;2024-03-07T12:35:17;25.77;;;16.08;;
42420;SDS011;28063;48.140;11.588;2024-03-07T12:37:43;30.58;;;18.52;;
42420;SDS011;28063;48.140;11.588;2024-03-07T12:40:11;24.60;;;16.92;;
42420;SDS011;28063;48.140;11.588;2024-03-07T12:42:47;25.02;;;17.65;;
42420;SDS011;28063;48.140;11.588;2024-03-07T12:45:13;28.17;;;17.17;;
42420;SDS011;28063;48.140;11.588;2024-03-07T12:47:43;25.58;;;15.77;;
42420;SDS011;28063;48.140;11.588;2024-03-07T12:50:09;24.75;;;16.73;;
42420;SDS011;28063;48.140;11.588;2024-03-07T12:52:38;28.05;;;16.70;;
42420;SDS011;28063;48.140;11.588;2024-03-07T12:55:05;27.45;;;16.30;;
42420;SDS011;28063;48.140;11.588;2024-03-07T12:57:32;21.80;;;14.70;;
42420;SDS011;28063;48.140;11.588;2024-03-07T12:59:58;20.35;;;13.48;;
42420;SDS011;28063;48.140;11.588;2024-03-07T13:02:24;19.92;;;14.13;;
42420;SDS011;28063;48.140;11.588;2024-03-07T13:04:54;22.45;;;13.95;;
42420;SDS011;28063;48.140;11.588;2024-03-07T13:07:21;23.60;;;16.58;;
42420;SDS011;28063;48.140;11.588;2024-03-07T13:09:48;25.50;;;17.55;;
42420;SDS011;28063;48.140;11.588;2024-03-07T13:12:14;27.75;;;16.73;;
42420;SDS011;28063;48.140;11.588;2024-03-07T13:14:40;31.67;;;19.20;;
42420;SDS011;28063;48.140;11.588;2024-03-07T13:17:09;30.27;;;19.40;;
42420;SDS011;28063;48.140;11.588;2024-03-07T13:19:39;32.30;;;19.85;;
42420;SDS011;28063;48.140;11.588;2024-03-07T13:22:06;30.30;;;18.70;;
42420;SDS011;28063;48.140;11.588;2024-03-07T13:24:32;27.92;;;18.10;;
42420;SDS011;28063;48.140;11.588;2024-03-07T13:27:00;32.60;;;18.75;;
42420;SDS011;28063;48.140;11.588;2024-03-07T13:29:26;26.67;;;16.05;;
42420;SDS011;28063;48.140;11.588;2024-03-07T13:31:53;23.58;;;14.38;;
42420;SDS011;28063;48.140;11.588;2024-03-07T13:34:21;20.27;;;13.48;;
42420;SDS011;28063;48.140;11.588;2024-03-07T13:36:50;20.80;;;13.02;;
42420;SDS011;28063;48.140;11.588;2024-03-07T13:39:17;25.42;;;15.95;;
42420;SDS011;28063;48.140;11.588;2024-03-07T13:41:43;26.25;;;16.50;;
42420;SDS011;28063;48.140;11.588;2024-03-07T13:44:13;25.00;;;15.32;;
42420;SDS011;28063;48.140;11.588;2024-03-07T13:46:39;23.52;;;14.55;;
42420;SDS011;28063;48.140;11.588;2024-03-07T13:49:06;21.92;;;13.35;;
42420;SDS011;28063;48.140;11.588;2024-03-07T13:51:37;23.80;;;14.95;;
42420;SDS011;28063;48.140;11.588;2024-03-07T13:54:05;20.38;;;13.32;;
42420;SDS011;28063;48.140;11.588;2024-03-07T14:02:35;19.23;;;13.23;;
42420;SDS011;28063;48.140;11.588;2024-03-07T14:13:12;22.60;;;15.23;;
42420;SDS011;28063;48.140;11.588;2024-03-07T14:20:52;27.30;;;16.35;;
42420;SDS011;28063;48.140;11.588;2024-03-07T14:31:44;24.48;;;16.27;;
42420;SDS011;28063;48.140;11.588;2024-03-07T14:37:04;26.67;;;16.42;;
42420;SDS011;28063;48.140;11.588;2024-03-07T14:39:31;31.08;;;18.35;;
42420;SDS011;28063;48.140;11.588;2024-03-07T14:42:04;34.92;;;21.70;;
42420;SDS011;28063;48.140;11.588;2024-03-07T14:44:39;31.10;;;19.00;;
42420;SDS011;28063;48.140;11.588;2024-03-07T14:47:11;30.10;;;17.60;;
42420;SDS011;28063;48.140;11.588;2024-03-07T14:49:39;29.70;;;18.55;;
42420;SDS011;28063;48.140;11.588;2024-03-07T14:52:05;28.20;;;16.92;;
42420;SDS011;28063;48.140;11.588;2024-03-07T14:54:38;27.95;;;18.15;;
42420;SDS011;28063;48.140;11.588;2024-03-07T14:57:04;33.33;;;20.50;;
42420;SDS011;28063;48.140;11.588;2024-03-07T14:59:31;33.47;;;19.67;;
42420;SDS011;28063;48.140;11.588;2024-03-07T15:01:58;27.55;;;17.52;;
42420;SDS011;28063;48.140;11.588;2024-03-07T15:04:24;25.25;;;16.77;;
42420;SDS011;28063;48.140;11.588;2024-03-07T15:06:51;26.75;;;16.50;;
42420;SDS011;28063;48.140;11.588;2024-03-07T15:09:22;27.17;;;17.35;;
42420;SDS011;28063;48.140;11.588;2024-03-07T15:11:48;30.95;;;17.30;;
42420;SDS011;28063;48.140;11.588;2024-03-07T15:14:15;26.52;;;16.48;;
42420;SDS011;28063;48.140;11.588;2024-03-07T15:16:41;24.15;;;16.40;;
42420;SDS011;28063;48.140;11.588;2024-03-07T15:19:07;23.35;;;15.82;;
42420;SDS011;28063;48.140;11.588;2024-03-07T15:21:37;20.42;;;13.40;;
42420;SDS011;28063;48.140;11.588;2024-03-07T15:24:04;20.27;;;13.90;;
42420;SDS011;28063;48.140;11.588;2024-03-07T15:26:31;21.90;;;12.02;;
42420;SDS011;28063;48.140;11.588;2024-03-07T15:28:57;18.17;;;12.05;;
42420;SDS011;28063;48.140;11.588;2024-03-07T15:31:25;15.73;;;10.93;;
42420;SDS011;28063;48.140;11.588;2024-03-07T15:33:51;20.45;;;13.30;;
42420;SDS011;28063;48.140;11.588;2024-03-07T15:36:17;18.90;;;12.25;;
42420;SDS011;28063;48.140;11.588;2024-03-07T15:38:44;13.55;;;9.80;;
42420;SDS011;28063;48.140;11.588;2024-03-07T15:41:10;16.92;;;11.45;;
42420;SDS011;28063;48.140;11.588;2024-03-07T15:43:40;17.58;;;11.10;;
42420;SDS011;28063;48.140;11.588;2024-03-07T15:46:08;17.70;;;11.18;;
42420;SDS011;28063;48.140;11.588;2024-03-07T15:48:36;15.10;;;10.50;;
42420;SDS011;28063;48.140;11.588;2024-03-07T15:51:02;17.25;;;10.90;;
42420;SDS011;28063;48.140;11.588;2024-03-07T15:53:30;15.10;;;11.13;;
42420;SDS011;28063;48.140;11.588;2024-03-07T15:55:59;17.60;;;11.60;;
42420;SDS011;28063;48.140;11.588;2024-03-07T15:58:25;15.80;;;10.85;;
42420;SDS011;28063;48.140;11.588;2024-03-07T16:00:51;14.70;;;9.95;;
42420;SDS011;28063;48.140;11.588;2024-03-07T16:03:17;16.10;;;10.40;;
42420;SDS011;28063;48.140;11.588;2024-03-07T16:05:48;15.30;;;9.90;;
42420;SDS011;28063;48.140;11.588;2024-03-07T16:08:15;14.00;;;9.15;;